createdAt,value
2018-06-05T00:03:24.819Z,24.03
2018-06-05T00:07:28.206Z,24.40
2018-06-05T00:11:31.564Z,24.27
2018-06-05T00:15:34.918Z,25.50
2018-06-05T00:19:38.274Z,27.10
2018-06-05T00:23:41.616Z,28.47
2018-06-05T00:27:44.955Z,27.90
2018-06-05T00:31:48.302Z,27.13
2018-06-05T00:35:51.665Z,26.33
2018-06-05T00:39:55.034Z,25.37
2018-06-05T00:43:58.375Z,22.57
2018-06-05T00:48:01.766Z,23.13
2018-06-05T00:52:08.996Z,21.30
2018-06-05T00:56:12.375Z,20.70
2018-06-05T01:00:15.723Z,22.00
2018-06-05T01:04:19.046Z,21.10
2018-06-05T01:08:23.019Z,23.27
2018-06-05T01:12:26.376Z,23.20
2018-06-05T01:16:29.718Z,22.47
2018-06-05T01:20:33.171Z,23.30
2018-06-05T01:24:36.497Z,23.00
2018-06-05T01:28:39.850Z,23.97
2018-06-05T01:32:43.189Z,22.47
2018-06-05T01:36:46.514Z,21.87
2018-06-05T01:40:49.870Z,21.40
2018-06-05T01:44:53.235Z,21.00
2018-06-05T01:48:56.748Z,19.70
2018-06-05T01:53:00.102Z,19.27
2018-06-05T01:57:03.507Z,18.90
2018-06-05T02:01:06.862Z,18.83
2018-06-05T02:05:10.219Z,19.07
2018-06-05T02:09:14.425Z,18.17
2018-06-05T02:13:17.812Z,18.37
2018-06-05T02:17:21.160Z,17.33
2018-06-05T02:21:24.542Z,17.40
2018-06-05T02:25:27.891Z,17.10
2018-06-05T02:29:31.210Z,16.60
2018-06-05T02:33:34.539Z,16.47
2018-06-05T02:37:37.911Z,17.40
2018-06-05T02:41:41.386Z,17.17
2018-06-05T02:45:44.762Z,18.30
2018-06-05T02:49:48.107Z,19.10
2018-06-05T02:53:51.467Z,19.43
2018-06-05T02:57:54.821Z,20.30
2018-06-05T03:01:58.319Z,19.30
2018-06-05T03:06:01.679Z,21.47
2018-06-05T03:10:05.063Z,21.13
2018-06-05T03:14:08.430Z,21.13
2018-06-05T03:18:11.799Z,21.23
2018-06-05T03:22:15.160Z,21.03
2018-06-05T03:26:18.557Z,20.20
2018-06-05T03:30:21.886Z,21.47
2018-06-05T03:34:25.273Z,19.57
2018-06-05T03:38:28.655Z,19.50
2018-06-05T03:42:31.747Z,19.30
2018-06-05T03:46:35.074Z,18.87
2018-06-05T03:50:38.419Z,18.53
2018-06-05T03:54:42.385Z,18.97
2018-06-05T03:58:45.764Z,18.50
2018-06-05T04:02:49.115Z,20.37
2018-06-05T04:06:52.490Z,18.70
2018-06-05T04:10:55.863Z,19.67
2018-06-05T04:14:59.240Z,19.03
2018-06-05T04:19:02.593Z,19.67
2018-06-05T04:23:05.968Z,18.97
2018-06-05T04:27:09.354Z,20.20
2018-06-05T04:31:12.695Z,20.70
2018-06-05T04:35:16.055Z,19.57
2018-06-05T04:39:19.402Z,19.97
2018-06-05T04:43:22.748Z,20.30
2018-06-05T04:47:26.098Z,21.10
2018-06-05T04:51:29.433Z,21.50
2018-06-05T04:55:32.786Z,19.90
2018-06-05T04:59:36.130Z,20.33
2018-06-05T05:03:39.519Z,20.67
2018-06-05T05:07:42.904Z,20.17
2018-06-05T05:11:46.347Z,19.23
2018-06-05T05:15:49.846Z,21.77
2018-06-05T05:19:53.210Z,20.83
2018-06-05T05:23:56.601Z,19.97
2018-06-05T05:27:59.947Z,20.57
2018-06-05T05:32:03.308Z,20.70
2018-06-05T05:36:06.430Z,20.77
2018-06-05T05:40:09.805Z,21.17
2018-06-05T05:44:13.142Z,21.03
2018-06-05T05:48:16.519Z,20.83
2018-06-05T05:52:19.943Z,20.27
2018-06-05T05:56:23.338Z,20.23
2018-06-05T06:00:26.675Z,20.17
2018-06-05T06:04:30.032Z,19.27
2018-06-05T06:08:33.375Z,19.03
2018-06-05T06:12:36.744Z,18.33
2018-06-05T06:16:40.071Z,19.17
2018-06-05T06:20:43.418Z,17.63
2018-06-05T06:24:46.777Z,18.20
2018-06-05T06:28:50.093Z,18.30
2018-06-05T06:32:53.422Z,18.53
2018-06-05T06:36:56.742Z,17.80
2018-06-05T06:41:00.110Z,18.27
2018-06-05T06:45:03.471Z,17.33
2018-06-05T06:49:06.816Z,16.20
2018-06-05T06:53:10.160Z,18.13
2018-06-05T06:57:13.472Z,16.73
2018-06-05T07:01:16.598Z,17.03
2018-06-05T07:05:19.936Z,17.60
2018-06-05T07:09:23.283Z,17.40
2018-06-05T07:13:26.655Z,17.40
2018-06-05T07:17:29.979Z,17.67
2018-06-05T07:21:33.315Z,18.20
2018-06-05T07:25:36.676Z,18.40
2018-06-05T07:29:40.028Z,17.97
2018-06-05T07:33:43.362Z,19.00
2018-06-05T07:37:46.663Z,18.10
2018-06-05T07:41:50.036Z,18.97
2018-06-05T07:45:53.399Z,19.83
2018-06-05T07:49:56.788Z,19.80
2018-06-05T07:54:00.120Z,20.90
2018-06-05T07:58:03.447Z,20.50
2018-06-05T08:02:06.831Z,20.77
2018-06-05T08:06:10.160Z,20.07
2018-06-05T08:10:13.511Z,20.83
2018-06-05T08:14:16.857Z,20.60
2018-06-05T08:18:20.201Z,19.53
2018-06-05T08:22:24.077Z,20.33
2018-06-05T08:26:39.116Z,20.50
2018-06-05T08:30:42.455Z,20.37
2018-06-05T08:34:45.799Z,19.13
2018-06-05T08:38:49.150Z,19.20
2018-06-05T08:42:52.478Z,18.93
2018-06-05T08:46:55.815Z,19.30
2018-06-05T08:50:59.237Z,19.27
2018-06-05T08:55:02.566Z,17.63
2018-06-05T08:59:05.943Z,17.30
2018-06-05T09:03:09.281Z,15.37
2018-06-05T09:07:12.616Z,13.60
2018-06-05T09:11:16.040Z,13.37
2018-06-05T09:15:19.415Z,12.90
2018-06-05T09:19:22.742Z,13.87
2018-06-05T09:23:26.101Z,13.63
2018-06-05T09:27:29.440Z,13.40
2018-06-05T09:31:32.904Z,13.57
2018-06-05T09:35:36.230Z,12.80
2018-06-05T09:39:39.574Z,13.67
2018-06-05T09:43:42.900Z,13.20
2018-06-05T09:47:46.232Z,13.57
2018-06-05T09:51:49.582Z,13.17
2018-06-05T09:55:52.948Z,13.33
2018-06-05T09:59:56.294Z,13.50
2018-06-05T10:03:59.695Z,13.47
2018-06-05T10:08:03.010Z,14.43
2018-06-05T10:12:06.372Z,14.03
2018-06-05T10:16:09.724Z,14.97
2018-06-05T10:20:13.147Z,14.33
2018-06-05T10:24:16.470Z,15.77
2018-06-05T10:28:19.851Z,15.73
2018-06-05T10:32:23.259Z,16.00
2018-06-05T10:36:26.611Z,14.87
2018-06-05T10:40:29.951Z,15.33
2018-06-05T10:44:33.027Z,15.37
2018-06-05T10:48:36.367Z,14.97
2018-06-05T10:52:39.696Z,14.57
2018-06-05T10:56:43.023Z,14.87
2018-06-05T11:00:46.381Z,14.83
2018-06-05T11:04:49.427Z,15.97
2018-06-05T11:08:52.762Z,13.90
2018-06-05T11:12:56.116Z,14.23
2018-06-05T11:16:59.479Z,14.10
2018-06-05T11:21:02.810Z,14.33
2018-06-05T11:25:06.161Z,14.57
2018-06-05T11:29:09.498Z,15.23
2018-06-05T11:33:12.842Z,15.03
2018-06-05T11:37:16.191Z,14.43
2018-06-05T11:41:19.539Z,14.00
2018-06-05T11:45:22.876Z,14.43
2018-06-05T11:49:26.278Z,15.47
2018-06-05T11:53:29.635Z,15.83
2018-06-05T11:57:32.992Z,15.50
2018-06-05T12:01:36.340Z,14.63
2018-06-05T12:05:39.700Z,14.30
2018-06-05T12:09:43.060Z,14.57
2018-06-05T12:13:46.432Z,14.07
2018-06-05T12:17:49.836Z,13.90
2018-06-05T12:21:53.151Z,12.37
2018-06-05T12:25:56.483Z,14.83
2018-06-05T12:29:59.826Z,14.07
2018-06-05T12:34:03.183Z,14.97
2018-06-05T12:38:06.531Z,13.70
2018-06-05T12:42:09.871Z,13.17
2018-06-05T12:46:13.214Z,13.87
2018-06-05T12:50:16.559Z,13.73
2018-06-05T12:54:19.910Z,14.40
2018-06-05T12:58:23.252Z,13.90
2018-06-05T13:02:26.606Z,13.67
2018-06-05T13:06:29.971Z,13.83
2018-06-05T13:10:33.328Z,13.17
2018-06-05T13:14:36.700Z,15.13
2018-06-05T13:18:40.044Z,13.37
2018-06-05T13:22:43.518Z,13.30
2018-06-05T13:26:46.752Z,13.80
2018-06-05T13:30:50.120Z,13.80
2018-06-05T13:34:53.486Z,14.90
2018-06-05T13:38:56.862Z,13.40
2018-06-05T13:43:00.217Z,14.40
2018-06-05T13:47:03.539Z,13.50
2018-06-05T13:51:06.890Z,13.27
2018-06-05T13:55:10.248Z,14.63
2018-06-05T13:59:13.599Z,13.23
2018-06-05T14:03:16.972Z,13.97
2018-06-05T14:07:20.288Z,15.03
2018-06-05T14:11:23.626Z,14.87
2018-06-05T14:15:26.987Z,15.43
2018-06-05T14:19:50.457Z,14.97
2018-06-05T14:23:53.803Z,14.00
2018-06-05T14:27:57.134Z,14.67
2018-06-05T14:32:00.459Z,14.33
2018-06-05T14:36:03.804Z,15.80
2018-06-05T14:40:07.151Z,13.97
2018-06-05T14:44:10.523Z,14.80
2018-06-05T14:48:13.890Z,14.10
2018-06-05T14:52:17.213Z,14.47
2018-06-05T14:56:20.570Z,13.90
2018-06-05T15:00:23.923Z,14.43
2018-06-05T15:04:27.314Z,14.23
2018-06-05T15:08:30.663Z,15.37
2018-06-05T15:12:33.999Z,14.50
2018-06-05T15:16:37.322Z,14.33
2018-06-05T15:20:40.673Z,14.50
2018-06-05T15:24:44.014Z,14.63
2018-06-05T15:28:47.351Z,13.03
2018-06-05T15:32:50.681Z,13.67
2018-06-05T15:36:54.035Z,13.77
2018-06-05T15:40:57.375Z,14.97
2018-06-05T15:45:00.696Z,13.63
2018-06-05T15:49:04.027Z,13.83
2018-06-05T15:53:07.355Z,13.87
2018-06-05T15:57:10.687Z,13.93
2018-06-05T16:01:14.091Z,13.43
2018-06-05T16:05:18.073Z,13.77
2018-06-05T16:09:21.516Z,13.40
2018-06-05T16:13:24.863Z,13.00
2018-06-05T16:17:28.228Z,12.87
2018-06-05T16:21:31.660Z,12.43
2018-06-05T16:25:34.995Z,13.10
2018-06-05T16:29:38.359Z,13.00
2018-06-05T16:33:41.685Z,12.67
2018-06-05T16:37:45.038Z,11.40
2018-06-05T16:41:48.362Z,11.00
2018-06-05T16:45:51.720Z,12.57
2018-06-05T16:49:55.063Z,11.60
2018-06-05T16:53:58.397Z,13.17
2018-06-05T16:58:02.816Z,11.47
2018-06-05T17:02:06.255Z,12.30
2018-06-05T17:06:09.592Z,13.17
2018-06-05T17:10:12.958Z,12.53
2018-06-05T17:14:16.310Z,10.37
2018-06-05T17:18:19.682Z,11.80
2018-06-05T17:22:23.159Z,12.70
2018-06-05T17:26:26.615Z,12.53
2018-06-05T17:30:29.958Z,11.53
2018-06-05T17:34:33.274Z,12.27
2018-06-05T17:38:36.634Z,11.20
2018-06-05T17:42:40.002Z,10.50
2018-06-05T17:46:43.358Z,11.53
2018-06-05T17:50:46.688Z,11.17
2018-06-05T17:54:50.055Z,11.97
2018-06-05T17:58:53.423Z,10.80
2018-06-05T18:02:56.790Z,11.47
2018-06-05T18:07:00.147Z,11.20
2018-06-05T18:11:03.541Z,10.60
2018-06-05T18:15:06.924Z,12.17
2018-06-05T18:19:10.258Z,12.13
2018-06-05T18:23:13.614Z,11.90
2018-06-05T18:27:16.689Z,11.10
2018-06-05T18:31:20.071Z,11.80
2018-06-05T18:35:23.423Z,11.37
2018-06-05T18:39:26.768Z,11.20
2018-06-05T18:43:30.128Z,12.00
2018-06-05T18:47:33.491Z,11.30
2018-06-05T18:51:36.823Z,12.67
2018-06-05T18:55:40.197Z,12.07
2018-06-05T18:59:43.906Z,12.90
2018-06-05T19:03:47.260Z,12.87
2018-06-05T19:07:50.639Z,13.10
2018-06-05T19:11:54.046Z,13.30
2018-06-05T19:15:57.419Z,14.03
2018-06-05T19:20:00.788Z,13.40
2018-06-05T19:24:05.407Z,13.67
2018-06-05T19:28:09.132Z,13.80
2018-06-05T19:32:12.467Z,14.70
2018-06-05T19:36:15.958Z,15.33
2018-06-05T19:40:19.325Z,15.07
2018-06-05T19:44:24.600Z,15.57
2018-06-05T19:48:28.081Z,15.97
2018-06-05T19:52:32.470Z,15.80
2018-06-05T19:56:35.921Z,16.33
2018-06-05T20:00:39.238Z,16.80
2018-06-05T20:04:42.567Z,18.03
2018-06-05T20:08:45.919Z,15.43
2018-06-05T20:12:49.307Z,16.27
2018-06-05T20:16:52.663Z,16.90
2018-06-05T20:20:55.999Z,15.63
2018-06-05T20:24:59.374Z,15.77
2018-06-05T20:29:02.716Z,15.37
2018-06-05T20:33:06.173Z,17.43
2018-06-05T20:37:09.543Z,17.03
2018-06-05T20:41:12.970Z,17.37
2018-06-05T20:45:16.327Z,17.43
2018-06-05T20:49:19.712Z,17.00
2018-06-05T20:53:23.067Z,16.77
2018-06-05T20:57:26.423Z,16.20
2018-06-05T21:01:29.757Z,16.10
2018-06-05T21:05:33.107Z,15.43
2018-06-05T21:09:36.199Z,16.27
2018-06-05T21:13:39.589Z,15.87
2018-06-05T21:17:42.991Z,17.20
2018-06-05T21:21:46.375Z,17.13
2018-06-05T21:25:50.075Z,15.03
2018-06-05T21:29:53.513Z,16.77
2018-06-05T21:33:56.879Z,16.83
2018-06-05T21:38:00.283Z,15.57
2018-06-05T21:42:03.681Z,15.77
2018-06-05T21:46:07.099Z,14.83
2018-06-05T21:50:10.506Z,15.13
2018-06-05T21:54:13.913Z,13.50
2018-06-05T21:58:17.477Z,13.27
2018-06-05T22:02:20.566Z,13.20
2018-06-05T22:06:23.948Z,12.83
2018-06-05T22:10:27.370Z,12.47
2018-06-05T22:14:30.816Z,11.90
2018-06-05T22:18:34.430Z,11.67
2018-06-05T22:22:37.839Z,11.50
2018-06-05T22:26:41.268Z,10.57
2018-06-05T22:30:44.934Z,10.60
2018-06-05T22:34:48.360Z,11.50
2018-06-05T22:38:51.732Z,11.20
2018-06-05T22:42:55.103Z,11.73
2018-06-05T22:46:58.461Z,12.17
2018-06-05T22:51:01.863Z,11.80
2018-06-05T22:55:05.715Z,11.67
2018-06-05T22:59:09.098Z,10.43
2018-06-05T23:03:12.523Z,10.63
2018-06-05T23:07:15.877Z,12.47
2018-06-05T23:11:19.287Z,9.97
2018-06-05T23:15:22.704Z,10.70
2018-06-05T23:19:26.063Z,10.40
2018-06-05T23:23:29.447Z,10.30
2018-06-05T23:27:32.795Z,10.70
2018-06-05T23:31:36.179Z,10.73
2018-06-05T23:35:39.568Z,10.50
2018-06-05T23:39:43.016Z,10.53
2018-06-05T23:43:46.394Z,11.40
2018-06-05T23:47:49.768Z,11.53
2018-06-05T23:51:57.407Z,11.43
2018-06-05T23:56:00.767Z,9.93
